RKSO

Osan Air Base Airport

South Korea
TAF RKSO 141900Z 1419/1601 VRB06KT 9999 SKC QNH3056INS BECMG 1517/1518 VRB06KT 9999 SCT100 QNH3060INS TX01/1506Z TNM10/1421Z
Issued Valid From Valid To
Dec-14 @ 19:00 UTC
(3 hours ago)
Dec-14 @ 19:00 UTC
(3 hours ago)
Dec-16 @ 01:00 UTC
(-1 days ago)
Dec-14 @ 19:00 to Dec-15 @ 17:00
TAF RKSO 141900Z 1419/1601 VRB06KT 9999 SKC QNH3056INS
Wind Visibility Clouds Readings
Variable at 6 knots 10,000+ meters
  • Clear skies
Altimeter 30.56" Hg
Pressure 1035 hPa
Becoming Dec-15 @ 17:00 to Dec-16 @ 01:00
BECMG 1517/1518 VRB06KT 9999 SCT100 QNH3060INS TX01/1506Z TNM10/1421Z
Wind Visibility Clouds Readings
Variable at 6 knots 10,000+ meters
  • Scattered at 10,000' AGL
Altimeter 30.59" Hg
Pressure 1036 hPa
TAF RKSO 141900Z 1419/1601 VRB06KT 9999 SKC QNH3056INS BECMG 1517/1518 VRB06KT 9999 SCT100 QNH3060INS TX01/1506Z TNM10/1421Z
Issued Dec-14 @ 19:00 UTC
(3 hours ago)
Valid From Dec-14 @ 19:00 UTC
(3 hours ago)
Valid To Dec-16 @ 01:00 UTC
(-1 days ago)
Dec-14 @ 19:00 - Dec-15 @ 17:00
Wind Visibility
Variable at 6 knots 10,000+ meters
Clouds
  • Clear skies
Becoming Dec-15 @ 17:00 - Dec-16 @ 01:00
Wind Visibility
Variable at 6 knots 10,000+ meters
Clouds
  • Scattered at 10,000' AGL